Time;durP1;ratioP1;P1;durP2;ratioP2;P2;SDS_P1;SDS_P2;PMS_P1;PMS_P2;Temp;Humidity;BMP_temperature;BMP_pressure;BME280_temperature;BME280_humidity;BME280_pressure;Samples;Min_cycle;Max_cycle;Signal;HPM_P1;HPM_P2
2022/04/15 00:02:24;;;;;;;13.40;6.15;;;;;;;;;;5112268;28;20256;-75
2022/04/15 00:04:50;;;;;;;12.32;5.97;;;;;;;;;;5112055;28;20019;-75
2022/04/15 00:07:15;;;;;;;18.33;6.57;;;;;;;;;;5113031;28;20050;-76
2022/04/15 00:09:41;;;;;;;10.15;6.10;;;;;;;;;;5113925;28;20016;-76
2022/04/15 00:12:10;;;;;;;12.43;6.70;;;;;;;;;;5113677;28;20024;-74
2022/04/15 00:14:35;;;;;;;13.95;7.57;;;;;;;;;;5112776;28;20003;-77
2022/04/15 00:17:00;;;;;;;12.70;7.22;;;;;;;;;;5112125;28;20051;-76
2022/04/15 00:19:25;;;;;;;18.35;6.63;;;;;;;;;;5112666;28;20047;-76
2022/04/15 00:21:51;;;;;;;12.20;6.50;;;;;;;;;;5112226;28;20020;-75
2022/04/15 00:24:16;;;;;;;13.30;6.22;;;;;;;;;;5111611;28;20012;-74
2022/04/15 00:26:41;;;;;;;13.82;8.18;;;;;;;;;;5112094;28;20468;-76
2022/04/15 00:29:07;;;;;;;13.30;8.48;;;;;;;;;;5112119;28;20149;-74
2022/04/15 00:31:32;;;;;;;16.77;8.68;;;;;;;;;;5111829;28;20019;-75
2022/04/15 00:33:58;;;;;;;12.57;7.45;;;;;;;;;;5111489;28;20056;-76
2022/04/15 00:36:23;;;;;;;12.68;6.70;;;;;;;;;;5111488;28;20027;-75
2022/04/15 00:38:48;;;;;;;9.77;6.70;;;;;;;;;;5110108;28;20412;-76
2022/04/15 00:41:15;;;;;;;15.13;5.82;;;;;;;;;;5118206;27;20057;-76
2022/04/15 00:43:40;;;;;;;14.10;7.75;;;;;;;;;;5120072;27;20368;-75
2022/04/15 00:46:06;;;;;;;14.80;6.68;;;;;;;;;;5114230;27;20032;-76
2022/04/15 00:48:32;;;;;;;14.90;6.75;;;;;;;;;;5111152;28;20039;-78
2022/04/15 00:50:57;;;;;;;12.85;5.97;;;;;;;;;;5111344;28;20039;-75
2022/04/15 00:53:23;;;;;;;9.98;6.00;;;;;;;;;;5111707;28;20385;-75
2022/04/15 00:55:51;;;;;;;8.35;5.57;;;;;;;;;;5113804;27;20014;-74
2022/04/15 00:58:16;;;;;;;14.02;6.18;;;;;;;;;;5121717;27;20504;-76
2022/04/15 01:00:42;;;;;;;12.45;6.00;;;;;;;;;;5118954;27;20064;-78
2022/04/15 01:03:07;;;;;;;12.55;6.78;;;;;;;;;;5109532;28;20023;-77
2022/04/15 01:05:32;;;;;;;9.88;6.18;;;;;;;;;;5108918;28;20028;-77
2022/04/15 01:08:00;;;;;;;22.58;7.72;;;;;;;;;;5110808;28;20412;-76
2022/04/15 01:10:26;;;;;;;11.27;5.80;;;;;;;;;;5111349;28;20019;-75
2022/04/15 01:12:54;;;;;;;11.95;6.20;;;;;;;;;;5110692;28;20028;-76
2022/04/15 01:15:20;;;;;;;10.85;6.30;;;;;;;;;;5111067;28;20063;-76
2022/04/15 01:17:45;;;;;;;14.80;6.60;;;;;;;;;;5112135;28;20059;-76
2022/04/15 01:20:11;;;;;;;11.10;6.57;;;;;;;;;;5115530;28;20461;-79
2022/04/15 01:22:37;;;;;;;9.27;6.65;;;;;;;;;;5115662;28;20260;-76
2022/04/15 01:25:04;;;;;;;9.15;6.15;;;;;;;;;;5111451;28;20107;-76
2022/04/15 01:27:32;;;;;;;10.55;6.68;;;;;;;;;;5110464;28;20142;-76
2022/04/15 01:29:57;;;;;;;12.30;6.10;;;;;;;;;;5110849;28;20035;-75
2022/04/15 01:32:22;;;;;;;15.73;6.38;;;;;;;;;;5115669;28;20030;-76
2022/04/15 01:34:48;;;;;;;10.77;5.93;;;;;;;;;;5120999;27;20015;-76
2022/04/15 01:37:14;;;;;;;11.48;6.20;;;;;;;;;;5115858;28;20712;-76
2022/04/15 01:39:40;;;;;;;11.60;7.05;;;;;;;;;;5110920;28;20024;-76
2022/04/15 01:42:05;;;;;;;10.27;6.18;;;;;;;;;;5111010;28;20018;-76
2022/04/15 01:44:30;;;;;;;15.40;5.80;;;;;;;;;;5111398;28;20042;-76
2022/04/15 01:46:55;;;;;;;12.63;5.60;;;;;;;;;;5118053;28;20042;-75
2022/04/15 01:49:21;;;;;;;9.53;6.27;;;;;;;;;;5118734;28;20043;-74
2022/04/15 01:51:46;;;;;;;10.52;5.97;;;;;;;;;;5115024;28;20290;-74
2022/04/15 01:54:11;;;;;;;10.18;6.05;;;;;;;;;;5118395;28;20019;-76
2022/04/15 01:56:36;;;;;;;9.70;5.90;;;;;;;;;;5121291;28;20490;-74
2022/04/15 01:59:01;;;;;;;10.43;5.75;;;;;;;;;;5113246;28;20280;-73
2022/04/15 02:01:27;;;;;;;12.07;6.05;;;;;;;;;;5121584;28;20024;-75
2022/04/15 02:03:52;;;;;;;11.00;6.30;;;;;;;;;;5110446;28;20646;-74
2022/04/15 02:06:17;;;;;;;15.07;6.43;;;;;;;;;;5121400;28;20030;-74
2022/04/15 02:08:42;;;;;;;8.65;6.45;;;;;;;;;;5124163;27;20155;-74
2022/04/15 02:11:08;;;;;;;11.03;6.67;;;;;;;;;;5120805;28;20435;-74
2022/04/15 02:13:33;;;;;;;12.80;7.50;;;;;;;;;;5096678;28;20680;-73
2022/04/15 02:15:58;;;;;;;10.02;6.97;;;;;;;;;;5110061;28;20122;-73
2022/04/15 02:18:26;;;;;;;11.32;6.90;;;;;;;;;;5124493;27;20030;-73
2022/04/15 02:20:51;;;;;;;10.43;6.55;;;;;;;;;;5133529;27;20034;-75
2022/04/15 02:23:16;;;;;;;11.68;7.40;;;;;;;;;;5134738;27;20015;-73
2022/04/15 02:25:42;;;;;;;14.27;7.65;;;;;;;;;;5134959;27;20031;-75
2022/04/15 02:28:07;;;;;;;12.63;6.57;;;;;;;;;;5134606;27;20118;-74
2022/04/15 02:30:32;;;;;;;10.90;6.63;;;;;;;;;;5134284;27;20495;-73
2022/04/15 02:32:57;;;;;;;12.18;7.47;;;;;;;;;;5133086;27;20268;-74
2022/04/15 02:35:22;;;;;;;15.20;7.30;;;;;;;;;;5134264;27;20087;-74
2022/04/15 02:37:48;;;;;;;11.55;7.05;;;;;;;;;;5133977;27;20354;-74
2022/04/15 02:40:13;;;;;;;13.98;7.38;;;;;;;;;;5134963;27;20030;-74
2022/04/15 02:42:38;;;;;;;11.57;6.90;;;;;;;;;;5134021;27;20017;-74
2022/04/15 02:45:04;;;;;;;15.25;6.60;;;;;;;;;;5123996;27;20019;-74
2022/04/15 02:47:29;;;;;;;15.65;7.75;;;;;;;;;;5124110;27;20107;-75
2022/04/15 02:49:55;;;;;;;14.65;8.23;;;;;;;;;;5132734;27;20011;-74
2022/04/15 02:52:20;;;;;;;11.73;7.57;;;;;;;;;;5130965;27;20030;-73
2022/04/15 02:54:46;;;;;;;11.80;7.38;;;;;;;;;;5124747;27;20015;-74
2022/04/15 02:57:11;;;;;;;13.13;7.45;;;;;;;;;;5122454;27;20019;-74
2022/04/15 02:59:36;;;;;;;11.67;7.20;;;;;;;;;;5132193;27;20014;-73
2022/04/15 03:02:01;;;;;;;16.25;7.53;;;;;;;;;;5133355;27;20259;-73
2022/04/15 03:04:28;;;;;;;13.60;6.75;;;;;;;;;;5116383;27;20016;-73
2022/04/15 03:06:54;;;;;;;10.90;7.28;;;;;;;;;;5133595;27;20029;-73
2022/04/15 03:09:21;;;;;;;10.93;6.80;;;;;;;;;;5125665;27;20098;-74
2022/04/15 03:11:46;;;;;;;10.57;6.50;;;;;;;;;;5113626;28;20026;-73
2022/04/15 03:14:12;;;;;;;11.07;6.10;;;;;;;;;;5111925;28;20023;-74
2022/04/15 03:16:37;;;;;;;14.30;6.53;;;;;;;;;;5112243;28;20153;-74
2022/04/15 03:19:03;;;;;;;11.60;6.50;;;;;;;;;;5111985;27;20096;-73
2022/04/15 03:21:29;;;;;;;7.22;5.50;;;;;;;;;;5122855;27;20015;-74
2022/04/15 03:23:54;;;;;;;12.73;6.95;;;;;;;;;;5122292;27;20466;-74
2022/04/15 03:26:19;;;;;;;12.43;8.10;;;;;;;;;;5131819;27;20031;-74
2022/04/15 03:28:45;;;;;;;13.30;7.82;;;;;;;;;;5133286;27;20019;-73
2022/04/15 03:31:10;;;;;;;12.93;7.88;;;;;;;;;;5133744;27;20019;-75
2022/04/15 03:33:36;;;;;;;12.05;7.18;;;;;;;;;;5136529;27;20015;-75
2022/04/15 03:36:01;;;;;;;10.40;6.63;;;;;;;;;;5135719;27;20020;-74
2022/04/15 03:38:26;;;;;;;14.80;8.10;;;;;;;;;;5133102;27;20072;-73
2022/04/15 03:40:51;;;;;;;11.97;7.33;;;;;;;;;;5133375;27;20449;-74
2022/04/15 03:43:17;;;;;;;14.65;8.55;;;;;;;;;;5132755;27;20683;-74
2022/04/15 03:45:42;;;;;;;14.00;8.20;;;;;;;;;;5132923;27;20112;-74
2022/04/15 03:48:07;;;;;;;14.85;7.68;;;;;;;;;;5132971;27;20729;-72
2022/04/15 03:50:33;;;;;;;13.75;8.07;;;;;;;;;;5133191;27;20072;-73
2022/04/15 03:52:59;;;;;;;12.55;7.28;;;;;;;;;;5132951;27;20031;-74
2022/04/15 03:55:24;;;;;;;10.60;7.20;;;;;;;;;;5129449;27;20008;-73
2022/04/15 03:57:50;;;;;;;14.50;7.80;;;;;;;;;;5122207;27;20038;-73
2022/04/15 04:00:19;;;;;;;11.85;7.75;;;;;;;;;;5121352;27;20523;-73
2022/04/15 04:02:48;;;;;;;11.77;7.63;;;;;;;;;;5132389;27;20023;-74
2022/04/15 04:05:14;;;;;;;11.27;7.45;;;;;;;;;;5122020;27;20476;-73
2022/04/15 04:07:43;;;;;;;15.18;8.73;;;;;;;;;;5129901;27;20045;-73
2022/04/15 04:10:09;;;;;;;12.30;8.30;;;;;;;;;;5128672;27;20472;-74
2022/04/15 04:12:35;;;;;;;21.30;7.07;;;;;;;;;;5111620;28;20038;-74
2022/04/15 04:15:01;;;;;;;13.73;7.60;;;;;;;;;;5111534;28;20035;-74
2022/04/15 04:17:26;;;;;;;12.18;7.10;;;;;;;;;;5111722;28;20035;-74
2022/04/15 04:19:52;;;;;;;9.02;6.55;;;;;;;;;;5111129;27;20016;-73
2022/04/15 04:22:17;;;;;;;14.93;7.47;;;;;;;;;;5116287;27;20023;-74
2022/04/15 04:24:42;;;;;;;9.18;6.38;;;;;;;;;;5121380;27;20073;-74
2022/04/15 04:27:07;;;;;;;12.30;7.23;;;;;;;;;;5118867;27;20029;-73
2022/04/15 04:29:32;;;;;;;13.05;7.03;;;;;;;;;;5113160;27;20260;-74
2022/04/15 04:31:58;;;;;;;12.93;6.90;;;;;;;;;;5116288;27;20039;-74
2022/04/15 04:34:23;;;;;;;10.80;6.85;;;;;;;;;;5119397;27;20263;-74
2022/04/15 04:36:48;;;;;;;13.73;7.05;;;;;;;;;;5119344;27;20064;-74
2022/04/15 04:39:13;;;;;;;13.43;7.75;;;;;;;;;;5111390;28;20042;-77
2022/04/15 04:41:39;;;;;;;15.60;6.45;;;;;;;;;;5111596;28;20011;-79
2022/04/15 04:44:05;;;;;;;14.18;6.88;;;;;;;;;;5111694;28;20505;-76
2022/04/15 04:46:30;;;;;;;16.83;7.63;;;;;;;;;;5115679;28;20031;-76
2022/04/15 04:48:55;;;;;;;11.40;7.20;;;;;;;;;;5110940;28;20027;-74
2022/04/15 04:51:20;;;;;;;13.20;8.73;;;;;;;;;;5112716;28;20024;-86
2022/04/15 04:53:46;;;;;;;11.90;7.70;;;;;;;;;;5113302;27;20491;-74
2022/04/15 04:56:11;;;;;;;13.80;7.32;;;;;;;;;;5115983;28;20527;-75
2022/04/15 04:58:36;;;;;;;12.73;8.07;;;;;;;;;;5112607;27;20050;-75
2022/04/15 05:01:01;;;;;;;17.50;7.60;;;;;;;;;;5125253;27;20023;-75
2022/04/15 05:03:27;;;;;;;13.90;7.80;;;;;;;;;;5116120;27;20266;-74
2022/04/15 05:05:52;;;;;;;11.43;6.70;;;;;;;;;;5120437;27;20020;-77
2022/04/15 05:08:17;;;;;;;11.35;6.10;;;;;;;;;;5119202;27;20035;-75
2022/04/15 05:10:42;;;;;;;12.73;6.73;;;;;;;;;;5120368;27;20052;-76
2022/04/15 05:13:08;;;;;;;13.30;6.97;;;;;;;;;;5122399;27;20267;-75
2022/04/15 05:15:33;;;;;;;14.23;7.38;;;;;;;;;;5120493;27;20043;-77
2022/04/15 05:17:58;;;;;;;8.53;6.17;;;;;;;;;;5119410;27;20411;-74
2022/04/15 05:20:23;;;;;;;19.77;9.30;;;;;;;;;;5123677;27;20251;-76
2022/04/15 05:22:48;;;;;;;20.23;8.82;;;;;;;;;;5119867;27;20484;-75
2022/04/15 05:25:14;;;;;;;16.15;8.15;;;;;;;;;;5121719;27;20011;-75
2022/04/15 05:27:39;;;;;;;15.50;7.28;;;;;;;;;;5121317;27;20128;-75
2022/04/15 05:30:05;;;;;;;12.02;7.47;;;;;;;;;;5118763;28;20368;-76
2022/04/15 05:32:30;;;;;;;15.48;7.03;;;;;;;;;;5120265;28;20034;-75
2022/04/15 05:34:55;;;;;;;11.32;6.45;;;;;;;;;;5118801;28;20102;-75
2022/04/15 05:37:21;;;;;;;15.57;7.68;;;;;;;;;;5118613;28;20495;-75
2022/04/15 05:39:46;;;;;;;11.27;6.32;;;;;;;;;;5115704;28;20466;-76
2022/04/15 05:42:11;;;;;;;9.93;6.13;;;;;;;;;;5119522;28;20028;-77
2022/04/15 05:44:36;;;;;;;8.77;6.00;;;;;;;;;;5126332;28;20729;-76
2022/04/15 05:47:02;;;;;;;16.95;7.18;;;;;;;;;;5123544;28;20708;-75
2022/04/15 05:49:27;;;;;;;13.98;7.65;;;;;;;;;;5119658;28;20016;-75
2022/04/15 05:51:52;;;;;;;14.90;7.57;;;;;;;;;;5123137;27;20122;-76
2022/04/15 05:54:18;;;;;;;16.23;5.65;;;;;;;;;;5122601;27;20008;-78
2022/04/15 05:56:43;;;;;;;21.45;6.93;;;;;;;;;;5124410;27;20020;-76
2022/04/15 05:59:08;;;;;;;12.07;6.03;;;;;;;;;;5122916;27;20022;-75
2022/04/15 06:01:34;;;;;;;16.95;6.20;;;;;;;;;;5125109;27;20263;-77
2022/04/15 06:03:59;;;;;;;11.40;5.72;;;;;;;;;;5122168;27;20019;-75
2022/04/15 06:06:25;;;;;;;10.02;6.15;;;;;;;;;;5123641;27;20064;-76
2022/04/15 06:08:50;;;;;;;11.38;6.78;;;;;;;;;;5124536;27;20479;-73
2022/04/15 06:11:15;;;;;;;10.23;6.35;;;;;;;;;;5122778;27;20056;-76
2022/04/15 06:13:46;;;;;;;7.30;5.72;;;;;;;;;;5122906;27;20360;-75
2022/04/15 06:16:12;;;;;;;8.50;6.03;;;;;;;;;;5114497;28;20043;-76
2022/04/15 06:18:37;;;;;;;11.02;6.50;;;;;;;;;;5113352;28;20016;-77
2022/04/15 06:21:03;;;;;;;16.27;6.60;;;;;;;;;;5114568;28;20024;-76
2022/04/15 06:23:28;;;;;;;12.00;7.20;;;;;;;;;;5114815;28;20252;-76
2022/04/15 06:25:54;;;;;;;8.85;6.15;;;;;;;;;;5127915;27;20020;-76
2022/04/15 06:28:21;;;;;;;9.43;6.20;;;;;;;;;;5114326;28;20521;-77
2022/04/15 06:30:48;;;;;;;8.85;6.30;;;;;;;;;;5114840;27;20884;-76
2022/04/15 06:33:15;;;;;;;11.10;5.93;;;;;;;;;;5113847;28;20038;-75
2022/04/15 06:35:40;;;;;;;14.20;7.10;;;;;;;;;;5113575;28;20049;-76
2022/04/15 06:38:05;;;;;;;7.60;5.72;;;;;;;;;;5121571;27;20019;-74
2022/04/15 06:40:30;;;;;;;12.02;6.00;;;;;;;;;;5113532;28;20084;-75
2022/04/15 06:42:56;;;;;;;11.82;5.80;;;;;;;;;;5112735;28;20024;-74
2022/04/15 06:45:21;;;;;;;10.85;6.18;;;;;;;;;;5113996;28;20020;-74
2022/04/15 06:47:46;;;;;;;14.73;6.18;;;;;;;;;;5113703;28;20035;-75
2022/04/15 06:50:11;;;;;;;14.93;6.80;;;;;;;;;;5113499;28;20415;-75
2022/04/15 06:52:37;;;;;;;10.95;6.10;;;;;;;;;;5113992;28;20027;-75
2022/04/15 06:55:03;;;;;;;13.17;6.37;;;;;;;;;;5113667;28;20445;-79
2022/04/15 06:57:30;;;;;;;11.95;6.32;;;;;;;;;;5121318;27;20358;-75
2022/04/15 06:59:55;;;;;;;11.55;6.47;;;;;;;;;;5133675;27;20400;-75
2022/04/15 07:02:21;;;;;;;10.20;7.07;;;;;;;;;;5133311;27;20034;-75
2022/04/15 07:04:46;;;;;;;11.02;6.13;;;;;;;;;;5134267;27;20247;-75
2022/04/15 07:07:11;;;;;;;9.30;6.18;;;;;;;;;;5133598;27;20038;-75
2022/04/15 07:09:37;;;;;;;15.77;5.95;;;;;;;;;;5125624;27;20494;-75
2022/04/15 07:12:02;;;;;;;11.43;6.47;;;;;;;;;;5134469;27;20093;-75
2022/04/15 07:14:29;;;;;;;9.40;6.57;;;;;;;;;;5134745;27;20480;-75
2022/04/15 07:16:54;;;;;;;13.73;6.47;;;;;;;;;;5132696;27;20137;-75
2022/04/15 07:19:19;;;;;;;8.85;5.78;;;;;;;;;;5134030;27;20133;-76
2022/04/15 07:21:45;;;;;;;9.57;5.70;;;;;;;;;;5134014;27;20015;-75
2022/04/15 07:24:10;;;;;;;14.93;7.50;;;;;;;;;;5133913;27;20026;-75
2022/04/15 07:26:35;;;;;;;7.82;5.45;;;;;;;;;;5134237;27;20026;-75
2022/04/15 07:29:01;;;;;;;11.95;6.18;;;;;;;;;;5133639;27;20031;-75
2022/04/15 07:31:26;;;;;;;8.77;5.20;;;;;;;;;;5133308;27;20019;-75
2022/04/15 07:33:52;;;;;;;16.77;6.75;;;;;;;;;;5133616;27;20016;-76
2022/04/15 07:39:07;;;;;;;8.52;5.40;;;;;;;;;;5133443;27;20042;-75
2022/04/15 07:41:36;;;;;;;7.18;4.72;;;;;;;;;;5134473;27;20030;-75
2022/04/15 07:44:01;;;;;;;7.43;5.00;;;;;;;;;;5134541;27;20023;-73
2022/04/15 07:46:27;;;;;;;6.82;4.35;;;;;;;;;;5129733;27;20023;-75
2022/04/15 07:48:52;;;;;;;6.13;4.47;;;;;;;;;;5133245;27;20092;-74
2022/04/15 07:51:17;;;;;;;7.93;4.87;;;;;;;;;;5133121;27;20019;-74
2022/04/15 07:53:42;;;;;;;6.93;4.30;;;;;;;;;;5133581;27;20110;-74
2022/04/15 07:56:08;;;;;;;7.30;4.67;;;;;;;;;;5137106;27;20002;-75
2022/04/15 07:58:33;;;;;;;7.43;5.43;;;;;;;;;;5136811;27;20739;-75
2022/04/15 08:01:00;;;;;;;8.32;4.50;;;;;;;;;;5133579;27;20342;-74
2022/04/15 08:03:26;;;;;;;8.85;4.60;;;;;;;;;;5133168;27;20038;-74
2022/04/15 08:05:51;;;;;;;9.45;5.10;;;;;;;;;;5133023;27;20011;-75
2022/04/15 08:08:16;;;;;;;7.17;4.87;;;;;;;;;;5122056;27;20088;-74
2022/04/15 08:10:41;;;;;;;6.50;4.37;;;;;;;;;;5112114;28;20256;-74
2022/04/15 08:13:07;;;;;;;5.30;4.10;;;;;;;;;;5111009;28;20636;-75
2022/04/15 08:15:33;;;;;;;6.28;4.30;;;;;;;;;;5112141;28;20264;-74
2022/04/15 08:17:58;;;;;;;6.22;4.38;;;;;;;;;;5112175;27;20172;-74
2022/04/15 08:20:23;;;;;;;6.57;4.05;;;;;;;;;;5126605;27;20051;-74
2022/04/15 08:22:48;;;;;;;9.23;4.43;;;;;;;;;;5132085;27;20019;-75
2022/04/15 08:25:14;;;;;;;7.03;3.73;;;;;;;;;;5124575;27;20275;-75
2022/04/15 08:27:39;;;;;;;8.07;4.40;;;;;;;;;;5112054;28;20031;-73
2022/04/15 08:30:04;;;;;;;7.45;3.90;;;;;;;;;;5111370;28;20023;-75
2022/04/15 08:32:38;;;;;;;11.48;4.00;;;;;;;;;;5111781;28;20042;-74
2022/04/15 08:35:05;;;;;;;5.13;3.95;;;;;;;;;;5111933;28;20052;-74
2022/04/15 08:37:30;;;;;;;7.78;3.92;;;;;;;;;;5111659;28;20031;-74
2022/04/15 08:39:57;;;;;;;6.30;3.67;;;;;;;;;;5110995;28;20012;-75
2022/04/15 08:42:22;;;;;;;6.10;3.55;;;;;;;;;;5111725;28;20610;-74
2022/04/15 08:44:49;;;;;;;7.03;3.92;;;;;;;;;;5111520;28;20069;-75
2022/04/15 08:47:14;;;;;;;8.00;3.78;;;;;;;;;;5111653;28;20074;-75
2022/04/15 08:49:40;;;;;;;6.63;3.63;;;;;;;;;;5111100;28;20023;-75
2022/04/15 08:52:05;;;;;;;7.33;4.03;;;;;;;;;;5111593;28;20518;-74
2022/04/15 08:54:31;;;;;;;5.85;4.03;;;;;;;;;;5128506;27;20552;-73
2022/04/15 08:56:56;;;;;;;6.40;3.85;;;;;;;;;;5131245;27;20432;-74
2022/04/15 08:59:22;;;;;;;6.05;3.95;;;;;;;;;;5132552;27;20017;-74
2022/04/15 09:01:47;;;;;;;6.70;3.50;;;;;;;;;;5133227;27;20018;-75
2022/04/15 09:04:12;;;;;;;5.70;3.93;;;;;;;;;;5132920;27;20707;-74
2022/04/15 09:06:41;;;;;;;6.25;4.07;;;;;;;;;;5131724;27;20299;-74
2022/04/15 09:09:14;;;;;;;5.88;3.90;;;;;;;;;;5131988;27;20019;-74
2022/04/15 09:11:40;;;;;;;6.82;4.10;;;;;;;;;;5131604;27;20031;-74
2022/04/15 09:14:10;;;;;;;5.22;3.60;;;;;;;;;;5131981;27;20079;-75
2022/04/15 09:16:40;;;;;;;5.88;3.67;;;;;;;;;;5131966;27;20062;-75
2022/04/15 09:19:07;;;;;;;4.72;3.10;;;;;;;;;;5131780;27;20018;-75
2022/04/15 09:21:32;;;;;;;7.90;3.75;;;;;;;;;;5131725;27;20011;-75
2022/04/15 09:23:58;;;;;;;8.30;3.63;;;;;;;;;;5131407;27;20030;-74
2022/04/15 09:26:24;;;;;;;4.45;3.22;;;;;;;;;;5131360;27;20027;-73
2022/04/15 09:28:49;;;;;;;8.77;4.00;;;;;;;;;;5131804;27;20395;-74
2022/04/15 09:31:15;;;;;;;6.57;3.60;;;;;;;;;;5113143;27;20361;-74
2022/04/15 09:34:00;;;;;;;5.75;3.28;;;;;;;;;;5110534;28;20027;-75
2022/04/15 09:36:27;;;;;;;6.90;3.50;;;;;;;;;;5111371;28;20031;-75
2022/04/15 09:39:00;;;;;;;9.45;3.80;;;;;;;;;;5111777;28;20077;-74
2022/04/15 09:41:26;;;;;;;5.60;3.60;;;;;;;;;;5109032;28;20020;-74
2022/04/15 09:43:52;;;;;;;7.40;3.90;;;;;;;;;;5110603;28;20015;-74
2022/04/15 09:46:18;;;;;;;5.85;3.40;;;;;;;;;;5110727;28;20035;-74
2022/04/15 09:48:57;;;;;;;6.78;3.50;;;;;;;;;;5110884;28;20066;-74
2022/04/15 09:51:22;;;;;;;5.47;3.33;;;;;;;;;;5110257;28;20024;-75
2022/04/15 09:53:48;;;;;;;4.93;3.03;;;;;;;;;;5110936;28;20031;-73
2022/04/15 09:56:14;;;;;;;6.75;3.90;;;;;;;;;;5111198;28;20815;-75
2022/04/15 09:58:41;;;;;;;6.03;3.35;;;;;;;;;;5113383;28;20053;-73
2022/04/15 10:01:07;;;;;;;5.38;3.15;;;;;;;;;;5110980;28;20020;-74
2022/04/15 10:03:34;;;;;;;6.10;3.22;;;;;;;;;;5109514;28;20078;-74
2022/04/15 10:06:00;;;;;;;4.90;3.22;;;;;;;;;;5111775;28;20024;-75
2022/04/15 10:08:26;;;;;;;6.67;3.90;;;;;;;;;;5114626;28;20031;-75
2022/04/15 10:10:52;;;;;;;6.90;3.13;;;;;;;;;;5116340;28;20459;-75
2022/04/15 10:13:20;;;;;;;6.55;3.78;;;;;;;;;;5114126;28;20111;-73
2022/04/15 10:15:47;;;;;;;5.68;3.05;;;;;;;;;;5110510;28;20044;-74
2022/04/15 10:18:12;;;;;;;4.53;2.83;;;;;;;;;;5111034;28;20020;-74
2022/04/15 10:20:38;;;;;;;5.95;3.38;;;;;;;;;;5110116;28;20035;-74
2022/04/15 10:23:08;;;;;;;3.90;2.70;;;;;;;;;;5110156;28;20020;-73
2022/04/15 10:25:34;;;;;;;8.02;3.45;;;;;;;;;;5110408;28;20023;-74
2022/04/15 10:28:06;;;;;;;6.80;3.58;;;;;;;;;;5110500;28;20038;-74
2022/04/15 10:30:32;;;;;;;7.80;3.75;;;;;;;;;;5110235;28;20031;-73
2022/04/15 10:33:00;;;;;;;7.25;3.60;;;;;;;;;;5125877;28;20388;-74
2022/04/15 10:35:26;;;;;;;6.53;3.72;;;;;;;;;;5130870;28;20015;-74
2022/04/15 10:38:10;;;;;;;9.10;3.50;;;;;;;;;;5131617;27;20015;-74
2022/04/15 10:40:35;;;;;;;6.97;3.45;;;;;;;;;;5128677;27;20024;-74
2022/04/15 10:43:16;;;;;;;9.00;3.38;;;;;;;;;;5113481;28;20472;-74
2022/04/15 10:45:41;;;;;;;8.90;4.38;;;;;;;;;;5114144;28;20064;-74
2022/04/15 10:48:07;;;;;;;7.50;3.37;;;;;;;;;;5114829;28;20115;-74
2022/04/15 10:50:33;;;;;;;6.43;3.92;;;;;;;;;;5113225;28;20263;-74
2022/04/15 10:53:16;;;;;;;7.47;3.60;;;;;;;;;;5114151;28;20857;-73
2022/04/15 10:55:46;;;;;;;9.80;4.05;;;;;;;;;;5113971;28;20482;-74
2022/04/15 10:58:13;;;;;;;7.65;4.13;;;;;;;;;;5114713;28;20020;-73
2022/04/15 11:03:23;;;;;;;6.72;3.53;;;;;;;;;;5113714;28;20092;-74
2022/04/15 11:05:50;;;;;;;5.55;3.20;;;;;;;;;;5113596;28;20443;-74
2022/04/15 11:08:16;;;;;;;6.60;3.63;;;;;;;;;;5113784;28;20063;-74
2022/04/15 11:10:41;;;;;;;5.03;3.30;;;;;;;;;;5113507;28;20476;-75
2022/04/15 11:13:33;;;;;;;6.00;3.90;;;;;;;;;;5113222;28;20031;-74
2022/04/15 11:16:12;;;;;;;6.18;3.63;;;;;;;;;;5079562;27;20134;-74
2022/04/15 11:18:43;;;;;;;8.20;4.05;;;;;;;;;;5133936;27;20012;-75
2022/04/15 11:21:19;;;;;;;7.57;3.63;;;;;;;;;;5134016;27;20027;-75
2022/04/15 11:23:46;;;;;;;6.10;3.53;;;;;;;;;;5129890;27;20088;-75
2022/04/15 11:26:11;;;;;;;8.48;4.15;;;;;;;;;;5113109;28;20091;-75
2022/04/15 11:28:36;;;;;;;5.90;4.00;;;;;;;;;;5113728;28;20468;-75
2022/04/15 11:31:03;;;;;;;6.30;3.45;;;;;;;;;;5113110;28;20537;-75
2022/04/15 11:33:32;;;;;;;6.25;3.60;;;;;;;;;;5111130;28;20038;-74
2022/04/15 11:35:58;;;;;;;10.55;4.43;;;;;;;;;;5112400;28;20038;-75
2022/04/15 11:38:23;;;;;;;7.20;4.10;;;;;;;;;;5113673;28;20026;-75
2022/04/15 11:40:49;;;;;;;6.67;3.53;;;;;;;;;;5114269;28;20023;-75
2022/04/15 11:43:14;;;;;;;6.93;3.90;;;;;;;;;;5114447;28;20548;-74
2022/04/15 11:45:43;;;;;;;5.33;3.20;;;;;;;;;;5114081;28;20024;-75
2022/04/15 11:48:22;;;;;;;7.88;3.22;;;;;;;;;;5113554;28;20284;-75
2022/04/15 11:50:48;;;;;;;8.07;4.22;;;;;;;;;;5113406;28;20047;-75
2022/04/15 11:53:14;;;;;;;6.00;3.60;;;;;;;;;;5112752;28;20016;-75
2022/04/15 11:55:55;;;;;;;6.75;3.47;;;;;;;;;;5131963;27;20021;-75
2022/04/15 11:58:23;;;;;;;5.30;3.20;;;;;;;;;;5133526;27;20536;-75
2022/04/15 12:00:56;;;;;;;9.27;4.32;;;;;;;;;;5118644;27;20020;-74
2022/04/15 12:03:21;;;;;;;8.82;3.95;;;;;;;;;;5117441;27;20024;-75
2022/04/15 12:05:47;;;;;;;7.03;3.45;;;;;;;;;;5120252;27;20384;-75
2022/04/15 12:08:15;;;;;;;18.95;4.57;;;;;;;;;;5114159;27;20038;-74
2022/04/15 12:10:42;;;;;;;4.72;3.42;;;;;;;;;;5112536;28;20011;-74
2022/04/15 12:13:07;;;;;;;6.10;3.83;;;;;;;;;;5129624;27;20027;-73
2022/04/15 12:15:33;;;;;;;13.25;4.03;;;;;;;;;;5132903;27;20050;-75
2022/04/15 12:17:59;;;;;;;7.22;4.28;;;;;;;;;;5127837;27;20034;-76
2022/04/15 12:20:24;;;;;;;10.73;4.50;;;;;;;;;;5122655;27;20012;-75
2022/04/15 12:22:50;;;;;;;7.50;3.75;;;;;;;;;;5117527;28;20056;-75
2022/04/15 12:25:16;;;;;;;11.07;5.60;;;;;;;;;;5112663;28;20028;-75
2022/04/15 12:27:44;;;;;;;8.23;5.10;;;;;;;;;;5112365;28;20472;-72
2022/04/15 12:30:10;;;;;;;10.50;6.18;;;;;;;;;;5110185;27;20031;-74
2022/04/15 12:32:36;;;;;;;9.20;5.57;;;;;;;;;;5114895;27;20171;-74
2022/04/15 12:35:01;;;;;;;11.00;5.40;;;;;;;;;;5122222;27;20107;-74
2022/04/15 12:37:33;;;;;;;12.03;5.27;;;;;;;;;;5117510;27;20464;-73
2022/04/15 12:40:00;;;;;;;8.00;4.55;;;;;;;;;;5119999;27;20030;-71
2022/04/15 12:42:29;;;;;;;11.85;4.88;;;;;;;;;;5124362;27;20043;-72
2022/04/15 12:44:55;;;;;;;10.38;6.00;;;;;;;;;;5111522;27;20022;-72
2022/04/15 12:47:23;;;;;;;9.20;5.83;;;;;;;;;;5128764;27;20027;-73
2022/04/15 12:49:49;;;;;;;9.40;5.32;;;;;;;;;;5121578;27;20251;-72
2022/04/15 12:52:17;;;;;;;9.32;5.32;;;;;;;;;;5123374;27;20030;-72
2022/04/15 12:54:59;;;;;;;10.82;5.97;;;;;;;;;;5120887;27;20115;-71
2022/04/15 12:57:31;;;;;;;8.52;5.22;;;;;;;;;;5121710;27;20015;-71
2022/04/15 12:59:57;;;;;;;9.48;5.22;;;;;;;;;;5119466;27;21262;-72
2022/04/15 13:02:23;;;;;;;9.65;6.05;;;;;;;;;;5119593;27;20042;-72
2022/04/15 13:04:52;;;;;;;9.70;5.97;;;;;;;;;;5120098;27;20067;-72
2022/04/15 13:07:18;;;;;;;13.75;7.05;;;;;;;;;;5120661;27;20015;-72
2022/04/15 13:09:43;;;;;;;8.73;6.10;;;;;;;;;;5118665;27;20075;-72
2022/04/15 13:12:09;;;;;;;11.27;6.80;;;;;;;;;;5119631;27;20019;-72
2022/04/15 13:14:34;;;;;;;11.57;6.60;;;;;;;;;;5119791;27;20015;-72
2022/04/15 13:16:59;;;;;;;12.77;7.47;;;;;;;;;;5119285;27;20517;-72
2022/04/15 13:19:27;;;;;;;13.10;7.00;;;;;;;;;;5120887;27;20248;-72
2022/04/15 13:21:53;;;;;;;16.20;8.07;;;;;;;;;;5111847;27;20106;-72
2022/04/15 13:24:18;;;;;;;12.30;7.30;;;;;;;;;;5118281;27;20111;-73
2022/04/15 13:26:43;;;;;;;17.87;7.27;;;;;;;;;;5115281;27;20027;-72
2022/04/15 13:29:09;;;;;;;11.87;7.27;;;;;;;;;;5113076;27;20743;-72
2022/04/15 13:31:36;;;;;;;12.57;7.20;;;;;;;;;;5112587;27;21806;-73
2022/04/15 13:34:04;;;;;;;13.45;7.10;;;;;;;;;;5112807;28;20255;-72
2022/04/15 13:36:29;;;;;;;11.45;8.02;;;;;;;;;;5112418;28;20426;-73
2022/04/15 13:38:55;;;;;;;12.40;7.13;;;;;;;;;;5119942;28;20023;-73
2022/04/15 13:41:21;;;;;;;13.82;8.30;;;;;;;;;;5120127;27;20692;-72
2022/04/15 13:43:46;;;;;;;11.43;7.80;;;;;;;;;;5112753;28;20099;-72
2022/04/15 13:46:11;;;;;;;13.82;7.93;;;;;;;;;;5114991;28;20007;-72
2022/04/15 13:48:36;;;;;;;14.70;8.40;;;;;;;;;;5112195;28;20031;-72
2022/04/15 13:51:02;;;;;;;10.75;7.75;;;;;;;;;;5116393;28;20355;-73
2022/04/15 13:58:55;;;;;;;16.88;8.98;;;;;;;;;;5113396;28;20031;-72
2022/04/15 14:01:24;;;;;;;12.57;8.02;;;;;;;;;;5120316;28;20031;-72
2022/04/15 14:03:50;;;;;;;12.65;8.23;;;;;;;;;;5120046;28;20467;-73
2022/04/15 14:06:16;;;;;;;15.70;8.68;;;;;;;;;;5109788;27;20296;-72
2022/04/15 14:08:41;;;;;;;14.13;9.02;;;;;;;;;;5121343;28;20049;-73
2022/04/15 14:11:07;;;;;;;34.83;19.88;;;;;;;;;;5118834;28;20497;-73
2022/04/15 14:13:35;;;;;;;19.95;12.77;;;;;;;;;;5118784;27;20469;-73
2022/04/15 14:16:00;;;;;;;39.58;21.10;;;;;;;;;;5123468;27;20484;-73
2022/04/15 14:18:25;;;;;;;14.73;9.90;;;;;;;;;;5125566;27;20018;-73
2022/04/15 14:20:51;;;;;;;15.20;9.13;;;;;;;;;;5119218;27;20042;-73
2022/04/15 14:23:16;;;;;;;13.95;8.57;;;;;;;;;;5118870;27;20264;-73
2022/04/15 14:25:41;;;;;;;16.60;9.20;;;;;;;;;;5119819;27;20023;-73
2022/04/15 14:28:07;;;;;;;11.38;8.43;;;;;;;;;;5120342;27;20287;-73
2022/04/15 14:30:32;;;;;;;15.50;9.10;;;;;;;;;;5121278;27;20037;-73
2022/04/15 14:32:59;;;;;;;11.43;8.57;;;;;;;;;;5119923;27;20488;-74
2022/04/15 14:35:24;;;;;;;10.98;8.43;;;;;;;;;;5124001;27;20700;-76
2022/04/15 14:37:50;;;;;;;14.45;9.48;;;;;;;;;;5127887;27;20032;-78
2022/04/15 14:40:16;;;;;;;16.75;8.75;;;;;;;;;;5122398;27;20019;-76
2022/04/15 14:42:41;;;;;;;13.68;8.57;;;;;;;;;;5132772;27;20031;-76